Fenton, IA (50539)

5:24 AM CDT on July 23, 2016 (GMT -0500)
APRSWXNET | | Change Station

Elev 1233 ft 43.16 °N, 94.36 °W | Updated 24 minutes ago

Clear
Clear
77 °F
Feels Like 78 °F
N
0
Wind Variable Wind from SE
Gusts 0.0 mph

Today
High -- | Low -- °F
--% Chance of Precip.
Yesterday
High -- | Low -- °F
Precip. -- in
Pressure 29.91 in
Visibility 10.0 miles
Clouds Clear
Heat Index 78 °F
Dew Point 76 °F
Humidity 98%
Rainfall in
Snow Depth Not available.
5:59 AM 8:48 PM
Waning Gibbous, 86% visible
METAR KAXA 231015Z AUTO 13006KT 10SM CLR 25/25 A2991 RMK AO2
Pressure 29.91 in
Visibility 10.0 miles
Clouds Clear
Heat Index 78 °F
Dew Point 76 °F
Humidity 98%
Rainfall in
Snow Depth Not available.
5:59 AM 8:48 PM
Waning Gibbous, 86% visible
METAR KAXA 231015Z AUTO 13006KT 10SM CLR 25/25 A2991 RMK AO2

10-Day Weather Forecast

Almanac

Astronomy

Jul. 23, 2016 Rise Set
Actual Time
Civil Twilight
Nautical Twilight
Astronomical Twilight
Moon
Length of Visible Light
Length of Day
Tomorrow will be .
, % of the Moon is Illuminated

Today's Extremes

State Highs State Lows

Community

WunderPhotos

Upload Photos

1,926,791 photos uploaded!

WunderBlog® & News

Nearby

Air Quality

  Air Quality AQ Index Pollutant
Not available.

Snow Depth

Station Depth Elevation

Earthquake Activity

City Distance Mag. Time & Date
Minimum magnitude displayed is 2.5.

Coastal Water Temperatures

Place Temperature

Stations

Nearby Weather Stations

Station Location Temp. Windchill Dew Point Humidity Wind Precip. Elev Updated Type
                   

Watches & Warnings

There are currently no watches in effect.